createdAt,value
2023-01-17T00:00:49.344Z,93186.53
2023-01-17T00:04:04.556Z,93179.69
2023-01-17T00:07:19.738Z,93175.75
2023-01-17T00:10:21.914Z,93177.13
2023-01-17T00:13:18.711Z,93189.69
2023-01-17T00:16:15.559Z,93186.94
2023-01-17T00:19:30.645Z,93189.91
2023-01-17T00:22:47.782Z,93198.34
2023-01-17T00:26:03.171Z,93192.34
2023-01-17T00:28:59.887Z,93204.19
2023-01-17T00:31:56.610Z,93210.03
2023-01-17T00:34:53.333Z,93216.16
2023-01-17T00:37:50.074Z,93216.81
2023-01-17T00:40:47.622Z,93221.53
2023-01-17T00:44:02.972Z,93232.63
2023-01-17T00:47:18.429Z,93242.41
2023-01-17T00:50:34.312Z,93240.97
2023-01-17T00:53:49.663Z,93251.25
2023-01-17T00:57:04.930Z,93256.94
2023-01-17T01:00:20.246Z,93260.25
2023-01-17T01:03:35.301Z,93275.84
2023-01-17T01:06:50.634Z,93291.88
2023-01-17T01:10:05.889Z,93297.59
2023-01-17T01:13:21.003Z,93304.06
2023-01-17T01:16:37.320Z,93304.84
2023-01-17T01:19:52.858Z,93312.31
2023-01-17T01:23:08.112Z,93314.44
2023-01-17T01:26:23.699Z,93321.25
2023-01-17T01:29:39.032Z,93307.63
2023-01-17T01:32:54.976Z,93318.94
2023-01-17T01:35:54.034Z,93325.09
2023-01-17T01:38:50.867Z,93326.50
2023-01-17T01:41:47.633Z,93326.94
2023-01-17T01:44:52.542Z,93339.94
2023-01-17T01:47:50.762Z,93328.75
2023-01-17T01:50:48.596Z,93346.50
2023-01-17T01:53:49.107Z,93337.38
2023-01-17T01:56:47.442Z,93351.91
2023-01-17T01:59:48.449Z,93350.16
2023-01-17T02:02:48.487Z,93368.63
2023-01-17T02:05:45.295Z,93360.88
2023-01-17T02:08:42.218Z,93358.47
2023-01-17T02:11:40.020Z,93374.22
2023-01-17T02:14:36.782Z,93364.84
2023-01-17T02:17:47.550Z,93373.84
2023-01-17T02:21:13.618Z,93389.56
2023-01-17T02:24:27.977Z,93379.94
2023-01-17T02:27:34.239Z,93384.13
2023-01-17T02:30:40.894Z,93378.72
2023-01-17T02:33:54.138Z,93387.13
2023-01-17T02:37:14.525Z,93391.41
2023-01-17T02:40:16.692Z,93387.19
2023-01-17T02:43:15.648Z,93388.47
2023-01-17T02:46:12.455Z,93391.75
2023-01-17T02:49:09.228Z,93399.81
2023-01-17T02:52:31.984Z,93401.41
2023-01-17T02:55:58.041Z,93407.56
2023-01-17T02:59:12.432Z,93417.22
2023-01-17T03:02:17.782Z,93419.13
2023-01-17T03:05:23.096Z,93424.41
2023-01-17T03:08:20.258Z,93417.59
2023-01-17T03:11:17.450Z,93438.78
2023-01-17T03:14:14.230Z,93427.47
2023-01-17T03:17:11.081Z,93434.00
2023-01-17T03:20:08.577Z,93443.28
2023-01-17T03:23:05.330Z,93434.47
2023-01-17T03:26:02.183Z,93431.19
2023-01-17T03:28:58.928Z,93434.59
2023-01-17T03:31:55.701Z,93446.25
2023-01-17T03:34:52.467Z,93440.53
2023-01-17T03:37:49.228Z,93445.59
2023-01-17T03:40:46.196Z,93443.72
2023-01-17T03:43:42.939Z,93452.56
2023-01-17T03:46:39.712Z,93462.50
2023-01-17T03:49:36.463Z,93466.78
2023-01-17T03:52:33.264Z,93461.41
2023-01-17T03:55:30.021Z,93469.66
2023-01-17T03:58:26.771Z,93472.63
2023-01-17T04:01:23.597Z,93481.88
2023-01-17T04:04:20.386Z,93480.53
2023-01-17T04:07:17.205Z,93470.47
2023-01-17T04:10:13.987Z,93476.59
2023-01-17T04:13:10.773Z,93476.38
2023-01-17T04:16:15.870Z,93483.28
2023-01-17T04:19:13.432Z,93489.97
2023-01-17T04:22:10.273Z,93486.66
2023-01-17T04:25:07.310Z,93500.88
2023-01-17T04:28:04.340Z,93496.38
2023-01-17T04:31:01.185Z,93500.19
2023-01-17T04:33:58.019Z,93506.09
2023-01-17T04:36:54.845Z,93510.28
2023-01-17T04:39:51.597Z,93506.09
2023-01-17T04:42:48.623Z,93526.75
2023-01-17T04:45:45.528Z,93519.28
2023-01-17T04:48:42.429Z,93526.56
2023-01-17T04:51:39.343Z,93530.28
2023-01-17T04:54:36.098Z,93526.75
2023-01-17T04:57:32.865Z,93529.22
2023-01-17T05:00:30.156Z,93540.38
2023-01-17T05:03:26.979Z,93549.69
2023-01-17T05:06:23.782Z,93548.44
2023-01-17T05:09:20.543Z,93553.25
2023-01-17T05:12:17.321Z,93556.34
2023-01-17T05:15:14.191Z,93568.41
2023-01-17T05:18:12.871Z,93568.00
2023-01-17T05:21:09.639Z,93581.00
2023-01-17T05:24:07.884Z,93578.66
2023-01-17T05:27:04.661Z,93575.88
2023-01-17T05:30:01.448Z,93577.13
2023-01-17T05:32:59.074Z,93596.78
2023-01-17T05:35:56.009Z,93595.06
2023-01-17T05:38:52.765Z,93598.66
2023-01-17T05:41:49.526Z,93602.97
2023-01-17T05:44:46.283Z,93610.75
2023-01-17T05:47:44.696Z,93603.16
2023-01-17T05:50:41.470Z,93591.84
2023-01-17T05:53:38.245Z,93606.56
2023-01-17T05:56:35.022Z,93611.06
2023-01-17T05:59:36.852Z,93607.97
2023-01-17T06:02:34.346Z,93626.69
2023-01-17T06:05:31.734Z,93616.78
2023-01-17T06:08:28.485Z,93619.41
2023-01-17T06:11:25.259Z,93616.47
2023-01-17T06:14:22.059Z,93627.63
2023-01-17T06:17:18.833Z,93633.97
2023-01-17T06:20:15.603Z,93634.31
2023-01-17T06:23:14.092Z,93641.56
2023-01-17T06:26:10.876Z,93643.56
2023-01-17T06:29:07.638Z,93642.19
2023-01-17T06:32:04.597Z,93651.00
2023-01-17T06:35:01.362Z,93652.88
2023-01-17T06:38:00.470Z,93667.56
2023-01-17T06:41:00.367Z,93680.88
2023-01-17T06:43:57.495Z,93684.44
2023-01-17T06:46:54.385Z,93677.47
2023-01-17T06:49:51.202Z,93678.09
2023-01-17T06:53:02.245Z,93688.78
2023-01-17T06:55:59.014Z,93684.59
2023-01-17T06:58:55.796Z,93691.13
2023-01-17T07:01:52.702Z,93689.38
2023-01-17T07:04:49.764Z,93697.47
2023-01-17T07:07:46.762Z,93694.97
2023-01-17T07:10:45.263Z,93697.13
2023-01-17T07:13:42.043Z,93696.50
2023-01-17T07:16:38.821Z,93689.56
2023-01-17T07:19:35.684Z,93688.94
2023-01-17T07:22:32.465Z,93685.22
2023-01-17T07:25:29.236Z,93685.06
2023-01-17T07:28:28.259Z,93688.16
2023-01-17T07:31:25.047Z,93697.44
2023-01-17T07:34:22.191Z,93695.91
2023-01-17T07:37:20.053Z,93697.91
2023-01-17T07:40:18.071Z,93707.66
2023-01-17T07:43:14.851Z,93715.53
2023-01-17T07:46:11.765Z,93713.19
2023-01-17T07:49:08.597Z,93724.53
2023-01-17T07:52:09.305Z,93725.31
2023-01-17T07:55:06.887Z,93739.50
2023-01-17T07:58:03.656Z,93740.78
2023-01-17T08:01:12.938Z,93742.13
2023-01-17T08:04:10.396Z,93741.81
2023-01-17T08:07:07.190Z,93744.63
2023-01-17T08:10:04.339Z,93735.84
2023-01-17T08:13:01.107Z,93733.50
2023-01-17T08:15:57.909Z,93751.75
2023-01-17T08:18:55.308Z,93744.66
2023-01-17T08:21:52.087Z,93736.47
2023-01-17T08:24:48.974Z,93731.53
2023-01-17T08:27:45.722Z,93742.22
2023-01-17T08:30:42.492Z,93745.75
2023-01-17T08:33:39.275Z,93740.47
2023-01-17T08:36:36.081Z,93739.88
2023-01-17T08:39:33.105Z,93739.25
2023-01-17T08:42:30.740Z,93754.88
2023-01-17T08:45:27.903Z,93754.75
2023-01-17T08:48:25.103Z,93744.69
2023-01-17T08:51:26.255Z,93745.47
2023-01-17T08:54:23.237Z,93737.13
2023-01-17T08:57:21.470Z,93734.94
2023-01-17T09:00:18.637Z,93735.41
2023-01-17T09:03:16.318Z,93731.53
2023-01-17T09:06:14.906Z,93732.94
2023-01-17T09:09:11.736Z,93727.69
2023-01-17T09:12:08.651Z,93737.59
2023-01-17T09:15:06.081Z,93738.69
2023-01-17T09:18:03.131Z,93732.94
2023-01-17T09:20:59.904Z,93730.59
2023-01-17T09:23:56.741Z,93737.91
2023-01-17T09:26:53.504Z,93745.03
2023-01-17T09:29:50.261Z,93756.16
2023-01-17T09:32:54.121Z,93759.13
2023-01-17T09:35:50.899Z,93758.66
2023-01-17T09:38:47.913Z,93763.63
2023-01-17T09:41:59.859Z,93765.63
2023-01-17T09:44:56.736Z,93757.22
2023-01-17T09:47:54.597Z,93766.06
2023-01-17T09:50:58.222Z,93763.44
2023-01-17T09:53:55.258Z,93759.09
2023-01-17T09:57:04.689Z,93753.97
2023-01-17T10:00:31.914Z,93760.44
2023-01-17T10:03:40.054Z,93760.25
2023-01-17T10:07:05.687Z,93759.06
2023-01-17T10:10:25.129Z,93756.06
2023-01-17T10:13:23.508Z,93749.81
2023-01-17T10:16:47.990Z,93748.31
2023-01-17T10:20:00.524Z,93745.63
2023-01-17T10:23:14.121Z,93733.34
2023-01-17T10:26:17.690Z,93737.63
2023-01-17T10:29:20.152Z,93737.03
2023-01-17T10:32:19.483Z,93736.69
2023-01-17T10:35:26.966Z,93738.78
2023-01-17T10:38:31.213Z,93738.38
2023-01-17T10:41:41.823Z,93733.44
2023-01-17T10:44:50.773Z,93729.09
2023-01-17T10:47:57.660Z,93721.56
2023-01-17T10:51:03.622Z,93732.69
2023-01-17T10:54:12.700Z,93737.66
2023-01-17T10:57:15.837Z,93731.28
2023-01-17T11:00:39.927Z,93740.44
2023-01-17T11:03:37.059Z,93726.88
2023-01-17T11:06:33.878Z,93728.75
2023-01-17T11:09:38.573Z,93735.00
2023-01-17T11:12:43.743Z,93737.97
2023-01-17T11:15:40.589Z,93740.72
2023-01-17T11:18:40.122Z,93741.03
2023-01-17T11:21:39.397Z,93736.00
2023-01-17T11:24:48.430Z,93732.81
2023-01-17T11:27:57.126Z,93732.31
2023-01-17T11:30:59.929Z,93733.75
2023-01-17T11:34:26.504Z,93740.16
2023-01-17T11:37:26.230Z,93741.16
2023-01-17T11:40:38.437Z,93737.56
2023-01-17T11:43:57.984Z,93748.53
2023-01-17T11:47:17.076Z,93742.63
2023-01-17T11:50:26.871Z,93745.53
2023-01-17T11:53:30.095Z,93747.69
2023-01-17T11:56:33.137Z,93746.28
2023-01-17T11:59:37.770Z,93745.91
2023-01-17T12:02:53.874Z,93740.34
2023-01-17T12:06:03.600Z,93737.34
2023-01-17T12:09:09.586Z,93734.44
2023-01-17T12:12:39.472Z,93738.28
2023-01-17T12:16:01.721Z,93735.94
2023-01-17T12:19:21.576Z,93733.25
2023-01-17T12:22:41.020Z,93726.72
2023-01-17T12:26:03.991Z,93719.34
2023-01-17T12:29:28.019Z,93715.66
2023-01-17T12:32:49.336Z,93709.69
2023-01-17T12:35:56.065Z,93707.53
2023-01-17T12:38:52.809Z,93703.53
2023-01-17T12:41:59.934Z,93707.22
2023-01-17T12:45:07.614Z,93696.97
2023-01-17T12:48:26.899Z,93693.81
2023-01-17T12:51:41.199Z,93696.19
2023-01-17T12:54:44.809Z,93696.88
2023-01-17T12:57:45.494Z,93697.00
2023-01-17T13:00:51.385Z,93690.16
2023-01-17T13:04:25.487Z,93682.13
2023-01-17T13:07:37.398Z,93688.03
2023-01-17T13:10:57.529Z,93686.28
2023-01-17T13:13:57.498Z,93685.16
2023-01-17T13:16:58.020Z,93676.28
2023-01-17T13:20:01.078Z,93673.91
2023-01-17T13:23:25.337Z,93683.16
2023-01-17T13:26:46.722Z,93676.19
2023-01-17T13:30:16.120Z,93693.56
2023-01-17T13:33:28.403Z,93701.75
2023-01-17T13:36:48.032Z,93691.97
2023-01-17T13:39:47.458Z,93695.97
2023-01-17T13:42:49.099Z,93702.03
2023-01-17T13:46:00.022Z,93711.03
2023-01-17T13:49:31.575Z,93710.13
2023-01-17T13:52:33.273Z,93707.91
2023-01-17T13:55:50.350Z,93709.88
2023-01-17T13:58:58.293Z,93713.13
2023-01-17T14:01:55.418Z,93718.69
2023-01-17T14:05:10.347Z,93704.06
2023-01-17T14:08:17.979Z,93715.81
2023-01-17T14:11:16.185Z,93708.47
2023-01-17T14:14:35.797Z,93711.72
2023-01-17T14:17:35.808Z,93706.72
2023-01-17T14:20:36.556Z,93716.81
2023-01-17T14:23:37.628Z,93715.88
2023-01-17T14:26:51.970Z,93709.16
2023-01-17T14:29:59.006Z,93707.84
2023-01-17T14:32:58.488Z,93709.25
2023-01-17T14:36:03.253Z,93719.97
2023-01-17T14:39:00.000Z,93722.75
2023-01-17T14:41:57.349Z,93712.09
2023-01-17T14:45:05.723Z,93714.94
2023-01-17T14:48:05.482Z,93709.03
2023-01-17T14:51:11.669Z,93705.81
2023-01-17T14:54:21.617Z,93719.66
2023-01-17T14:57:29.390Z,93724.19
2023-01-17T15:00:29.328Z,93714.78
2023-01-17T15:03:26.416Z,93710.03
2023-01-17T15:06:38.551Z,93698.41
2023-01-17T15:09:37.421Z,93693.44
2023-01-17T15:12:36.630Z,93701.63
2023-01-17T15:15:41.984Z,93701.09
2023-01-17T15:18:41.680Z,93706.91
2023-01-17T15:21:43.123Z,93698.84
2023-01-17T15:24:46.994Z,93686.91
2023-01-17T15:27:43.873Z,93689.84
2023-01-17T15:31:04.747Z,93686.31
2023-01-17T15:34:05.328Z,93678.72
2023-01-17T15:37:10.602Z,93672.38
2023-01-17T15:40:22.000Z,93667.56
2023-01-17T15:43:20.671Z,93662.31
2023-01-17T15:46:25.691Z,93667.75
2023-01-17T15:49:24.265Z,93676.53
2023-01-17T15:52:21.555Z,93670.47
2023-01-17T15:55:38.780Z,93678.50
2023-01-17T15:58:35.613Z,93679.06
2023-01-17T16:01:32.574Z,93673.50
2023-01-17T16:04:34.197Z,93675.03
2023-01-17T16:07:35.657Z,93675.44
2023-01-17T16:10:38.982Z,93676.56
2023-01-17T16:13:38.713Z,93678.38
2023-01-17T16:16:35.532Z,93675.28
2023-01-17T16:19:34.619Z,93679.22
2023-01-17T16:22:31.624Z,93682.72
2023-01-17T16:25:34.870Z,93676.78
2023-01-17T16:28:31.637Z,93673.94
2023-01-17T16:31:28.471Z,93670.25
2023-01-17T16:34:25.269Z,93662.38
2023-01-17T16:37:23.000Z,93665.41
2023-01-17T16:40:20.807Z,93668.34
2023-01-17T16:43:19.169Z,93671.75
2023-01-17T16:46:20.406Z,93671.38
2023-01-17T16:49:18.626Z,93681.38
2023-01-17T16:52:15.504Z,93685.06
2023-01-17T16:55:15.832Z,93687.69
2023-01-17T16:58:12.625Z,93695.50
2023-01-17T17:01:17.271Z,93687.22
2023-01-17T17:04:14.133Z,93694.28
2023-01-17T17:07:11.014Z,93692.13
2023-01-17T17:10:09.008Z,93707.56
2023-01-17T17:13:05.787Z,93700.69
2023-01-17T17:16:03.166Z,93706.72
2023-01-17T17:19:05.711Z,93713.06
2023-01-17T17:22:02.596Z,93714.53
2023-01-17T17:24:59.913Z,93714.00
2023-01-17T17:27:56.681Z,93709.66
2023-01-17T17:31:08.044Z,93716.94
2023-01-17T17:34:07.289Z,93724.63
2023-01-17T17:37:04.944Z,93722.53
2023-01-17T17:40:01.770Z,93721.91
2023-01-17T17:42:58.522Z,93724.38
2023-01-17T17:45:55.331Z,93731.78
2023-01-17T17:48:52.180Z,93741.66
2023-01-17T17:51:49.292Z,93753.75
2023-01-17T17:54:47.556Z,93757.31
2023-01-17T17:57:45.674Z,93758.69
2023-01-17T18:00:42.460Z,93769.38
2023-01-17T18:03:39.218Z,93761.47
2023-01-17T18:06:36.530Z,93772.63
2023-01-17T18:09:33.353Z,93766.44
2023-01-17T18:12:30.114Z,93774.31
2023-01-17T18:15:26.896Z,93764.50
2023-01-17T18:18:24.823Z,93764.22
2023-01-17T18:21:27.126Z,93758.00
2023-01-17T18:24:25.150Z,93745.97
2023-01-17T18:27:21.922Z,93754.75
2023-01-17T18:30:18.690Z,93741.13
2023-01-17T18:33:15.475Z,93738.38
2023-01-17T18:36:13.258Z,93737.19
2023-01-17T18:39:12.721Z,93745.13
2023-01-17T18:42:13.069Z,93746.22
2023-01-17T18:45:10.158Z,93738.88
2023-01-17T18:48:06.908Z,93747.47
2023-01-17T18:51:06.077Z,93737.97
2023-01-17T18:54:06.804Z,93742.91
2023-01-17T18:57:04.053Z,93748.31
2023-01-17T19:00:02.318Z,93746.56
2023-01-17T19:02:59.372Z,93736.66
2023-01-17T19:05:56.156Z,93739.69
2023-01-17T19:08:54.435Z,93755.81
2023-01-17T19:11:54.902Z,93748.81
2023-01-17T19:14:51.664Z,93737.38
2023-01-17T19:17:48.430Z,93739.00
2023-01-17T19:20:45.916Z,93746.78
2023-01-17T19:23:45.779Z,93744.94
2023-01-17T19:26:43.119Z,93758.06
2023-01-17T19:29:39.881Z,93770.09
2023-01-17T19:32:36.650Z,93766.41
2023-01-17T19:35:33.479Z,93768.34
2023-01-17T19:38:30.610Z,93776.09
2023-01-17T19:41:28.537Z,93769.03
2023-01-17T19:44:25.293Z,93774.00
2023-01-17T19:47:22.078Z,93773.31
2023-01-17T19:50:19.230Z,93773.47
2023-01-17T19:53:15.997Z,93777.38
2023-01-17T19:56:17.932Z,93775.44
2023-01-17T19:59:15.028Z,93779.50
2023-01-17T20:02:11.958Z,93785.53
2023-01-17T20:05:09.102Z,93785.91
2023-01-17T20:08:06.333Z,93788.84
2023-01-17T20:11:08.173Z,93788.94
2023-01-17T20:14:07.728Z,93781.84
2023-01-17T20:17:04.543Z,93792.50
2023-01-17T20:20:01.491Z,93790.88
2023-01-17T20:22:58.254Z,93785.25
2023-01-17T20:26:04.676Z,93801.09
2023-01-17T20:29:10.789Z,93795.03
2023-01-17T20:32:08.047Z,93791.44
2023-01-17T20:35:05.202Z,93802.22
2023-01-17T20:38:01.954Z,93797.28
2023-01-17T20:40:58.722Z,93807.69
2023-01-17T20:43:57.674Z,93802.91
2023-01-17T20:46:54.442Z,93802.72
2023-01-17T20:49:51.197Z,93806.69
2023-01-17T20:52:50.764Z,93802.41
2023-01-17T20:55:48.488Z,93801.94
2023-01-17T20:58:45.794Z,93806.03
2023-01-17T21:01:43.900Z,93803.00
2023-01-17T21:04:40.832Z,93812.59
2023-01-17T21:07:37.833Z,93808.44
2023-01-17T21:10:34.963Z,93799.41
2023-01-17T21:13:31.885Z,93804.38
2023-01-17T21:16:28.994Z,93797.66
2023-01-17T21:19:26.005Z,93795.03
2023-01-17T21:22:22.767Z,93797.88
2023-01-17T21:25:19.534Z,93789.91
2023-01-17T21:28:16.309Z,93789.31
2023-01-17T21:31:25.898Z,93787.97
2023-01-17T21:34:25.310Z,93784.94
2023-01-17T21:37:22.421Z,93783.78
2023-01-17T21:40:19.274Z,93790.31
2023-01-17T21:43:16.232Z,93786.31
2023-01-17T21:46:13.073Z,93796.88
2023-01-17T21:49:11.776Z,93796.13
2023-01-17T21:52:11.482Z,93790.38
2023-01-17T21:55:27.440Z,93781.25
2023-01-17T21:58:43.029Z,93787.28
2023-01-17T22:01:40.485Z,93784.97
2023-01-17T22:04:37.486Z,93781.34
2023-01-17T22:07:34.566Z,93780.75
2023-01-17T22:10:31.531Z,93782.31
2023-01-17T22:13:31.602Z,93782.59
2023-01-17T22:16:28.620Z,93788.84
2023-01-17T22:19:25.381Z,93778.34
2023-01-17T22:22:22.188Z,93779.31
2023-01-17T22:25:19.051Z,93776.38
2023-01-17T22:28:15.816Z,93774.34
2023-01-17T22:31:20.976Z,93772.91
2023-01-17T22:34:18.879Z,93771.72
2023-01-17T22:37:16.061Z,93758.50
2023-01-17T22:40:13.207Z,93758.63
2023-01-17T22:43:10.053Z,93756.38
2023-01-17T22:46:08.220Z,93754.22
2023-01-17T22:49:07.587Z,93755.78
2023-01-17T22:52:04.564Z,93749.75
2023-01-17T22:55:01.366Z,93750.19
2023-01-17T22:57:58.154Z,93753.00
2023-01-17T23:00:57.528Z,93756.28
2023-01-17T23:03:59.835Z,93749.03
2023-01-17T23:06:56.639Z,93750.88
2023-01-17T23:09:53.683Z,93740.09
2023-01-17T23:12:50.485Z,93737.47
2023-01-17T23:16:05.699Z,93743.56
2023-01-17T23:19:21.424Z,93750.28
2023-01-17T23:22:23.611Z,93747.34
2023-01-17T23:25:20.394Z,93745.31
2023-01-17T23:28:20.873Z,93744.16
2023-01-17T23:31:17.711Z,93748.34
2023-01-17T23:34:14.481Z,93746.66
2023-01-17T23:37:11.252Z,93753.47
2023-01-17T23:40:08.867Z,93747.75
2023-01-17T23:43:24.053Z,93749.75
2023-01-17T23:46:21.613Z,93761.03
2023-01-17T23:49:18.374Z,93756.00
2023-01-17T23:52:15.861Z,93761.13
2023-01-17T23:55:13.974Z,93752.09
2023-01-17T23:58:11.535Z,93756.16
